Hlavní strana
METAR-TAF:

METAR-TAF

Letiště :

Aarhus, Dánsko

zeměpisná šířka: 56-18N, zeměpisná délka: 010-37E, výška: 23 m

Aktuální stav počasí

Zpráva byla vytvořena před 33 minutami, v 04:50 UTC
Jihojihovýchodní vítr 4 kt, proměnlivý mezi východojihovýchodním a jižním
Teplota 7°C
Vlhkost vzduchu 93%
Tlak 1032 hPa
Viditelnost: 8000 m

METAR: EKAH 160450Z AUTO 15004KT 110V180 8000NDV BKN008/// 07/06 Q1032

Čas: 06:23 (05:23 UTC)

Předpověď počasí

Zpráva byla vytvořena před 6 hodinami a 8 minutami, v 23:15 UTC
Předpověď platná od 16 v 00 UTC do 16 v 24 UTC
Jihojihovýchodní vítr 8 kt
Viditelnost: 9000 m
Dočasný
od 16 v 00 UTC do 16 v 09 UTC
Viditelnost: 4000 m
Oblačno až skoro zataženo ve výšce 800 ft
kouřmo
Dočasný
od 16 v 21 UTC do 16 v 24 UTC
Viditelnost: 4000 m
Oblačno až skoro zataženo ve výšce 800 ft
kouřmo

TAF: EKAH 152315Z 1600/1624 15008KT 9000 NSC TEMPO 1600/1609 4000 BR BKN008 TEMPO 1621/1624 4000 BR BKN008

Stav a předpovědi počasí z více než 4 000 letišť (zprávy METAR a TAF).

Červené a žluté tečky na mapě představují dostupné meteorologické stanice.

Když kurzor umístíte na tečku, zobrazí se název stanice.

Pak kliknutím zobrazíte stav a předpověď počasí.

Chcete-li změnit mapu, kliknutím na zelené tlačítko se znaménkem +mapu přiblížíte, kliknutím na zelené tlačítko se znaménkem – mapu oddálíte a kliknutím na zelené šipky přejdete na sousední mapy.


METAR-TAF: